createdAt,value
2023-07-23T00:01:58.231Z,1.63
2023-07-23T00:05:06.739Z,1.27
2023-07-23T00:08:09.660Z,1.30
2023-07-23T00:11:12.617Z,1.50
2023-07-23T00:14:15.642Z,1.50
2023-07-23T00:17:18.558Z,1.43
2023-07-23T00:20:21.470Z,1.50
2023-07-23T00:23:25.268Z,1.42
2023-07-23T00:26:30.100Z,1.50
2023-07-23T00:29:33.127Z,1.20
2023-07-23T00:32:36.427Z,1.50
2023-07-23T00:35:39.708Z,1.37
2023-07-23T00:38:46.385Z,1.70
2023-07-23T00:41:50.583Z,1.55
2023-07-23T00:44:53.624Z,1.67
2023-07-23T00:47:56.805Z,1.33
2023-07-23T00:50:59.866Z,1.60
2023-07-23T00:54:04.474Z,1.58
2023-07-23T00:57:12.074Z,1.48
2023-07-23T01:00:15.369Z,1.63
2023-07-23T01:03:18.581Z,1.37
2023-07-23T01:06:21.791Z,1.73
2023-07-23T01:09:26.061Z,1.80
2023-07-23T01:12:29.214Z,1.63
2023-07-23T01:15:33.489Z,1.30
2023-07-23T01:18:41.303Z,1.47
2023-07-23T01:21:44.399Z,1.30
2023-07-23T01:24:47.381Z,1.80
2023-07-23T01:27:50.332Z,1.58
2023-07-23T01:30:56.084Z,1.80
2023-07-23T01:34:05.711Z,1.60
2023-07-23T01:37:11.529Z,1.60
2023-07-23T01:40:16.430Z,1.83
2023-07-23T01:43:20.518Z,1.80
2023-07-23T01:46:23.500Z,1.75
2023-07-23T01:49:26.414Z,1.77
2023-07-23T01:52:29.334Z,1.40
2023-07-23T01:55:32.428Z,1.75
2023-07-23T01:58:35.400Z,1.30
2023-07-23T02:01:38.471Z,1.77
2023-07-23T02:04:41.359Z,1.73
2023-07-23T02:07:44.634Z,1.70
2023-07-23T02:10:47.430Z,1.55
2023-07-23T02:13:50.344Z,1.75
2023-07-23T02:16:53.290Z,1.40
2023-07-23T02:20:02.176Z,1.70
2023-07-23T02:23:08.622Z,1.47
2023-07-23T02:26:11.628Z,1.27
2023-07-23T02:29:14.510Z,1.50
2023-07-23T02:32:20.611Z,1.40
2023-07-23T02:35:23.557Z,1.40
2023-07-23T02:38:26.478Z,1.40
2023-07-23T02:41:32.484Z,1.60
2023-07-23T02:44:35.422Z,1.52
2023-07-23T02:47:38.257Z,1.05
2023-07-23T02:50:41.379Z,1.40
2023-07-23T02:53:44.352Z,1.70
2023-07-23T02:56:49.772Z,1.73
2023-07-23T02:59:52.704Z,1.48
2023-07-23T03:02:56.955Z,1.52
2023-07-23T03:05:59.929Z,1.50
2023-07-23T03:09:02.855Z,1.60
2023-07-23T03:12:06.002Z,1.67
2023-07-23T03:15:09.246Z,1.38
2023-07-23T03:18:12.214Z,1.40
2023-07-23T03:21:15.183Z,1.20
2023-07-23T03:24:21.702Z,1.70
2023-07-23T03:27:24.612Z,1.70
2023-07-23T03:30:28.356Z,1.70
2023-07-23T03:33:31.384Z,1.40
2023-07-23T03:36:34.275Z,1.50
2023-07-23T03:39:37.166Z,1.43
2023-07-23T03:42:40.002Z,1.63
2023-07-23T03:45:43.000Z,1.50
2023-07-23T03:48:48.819Z,1.38
2023-07-23T03:51:52.003Z,1.50
2023-07-23T03:54:54.902Z,1.77
2023-07-23T03:57:57.799Z,1.60
2023-07-23T04:01:00.857Z,1.20
2023-07-23T04:04:03.964Z,1.55
2023-07-23T04:07:08.018Z,1.70
2023-07-23T04:10:11.763Z,1.70
2023-07-23T04:13:15.473Z,1.30
2023-07-23T04:16:18.954Z,1.17
2023-07-23T04:19:22.207Z,1.60
2023-07-23T04:22:25.144Z,1.80
2023-07-23T04:25:28.003Z,1.40
2023-07-23T04:28:32.260Z,1.63
2023-07-23T04:31:35.184Z,1.63
2023-07-23T04:34:38.114Z,1.13
2023-07-23T04:37:41.134Z,1.60
2023-07-23T04:40:44.054Z,1.50
2023-07-23T04:43:47.297Z,1.35
2023-07-23T04:46:50.230Z,1.20
2023-07-23T04:49:53.129Z,1.40
2023-07-23T04:52:56.025Z,1.30
2023-07-23T04:56:03.893Z,1.60
2023-07-23T04:59:08.475Z,1.52
2023-07-23T05:02:11.257Z,1.45
2023-07-23T05:05:14.216Z,1.58
2023-07-23T05:08:17.823Z,1.30
2023-07-23T05:11:20.759Z,1.30
2023-07-23T05:14:23.754Z,1.40
2023-07-23T05:17:26.775Z,1.25
2023-07-23T05:20:30.255Z,1.40
2023-07-23T05:23:33.537Z,1.40
2023-07-23T05:26:36.442Z,1.20
2023-07-23T05:29:39.310Z,1.27
2023-07-23T05:32:42.214Z,1.40
2023-07-23T05:35:45.603Z,1.27
2023-07-23T05:38:48.508Z,1.40
2023-07-23T05:41:52.180Z,1.30
2023-07-23T05:44:55.081Z,1.20
2023-07-23T05:47:57.998Z,1.40
2023-07-23T05:51:01.004Z,1.42
2023-07-23T05:54:04.043Z,1.30
2023-07-23T05:57:07.293Z,1.20
2023-07-23T06:00:10.700Z,1.50
2023-07-23T06:03:16.350Z,1.65
2023-07-23T06:06:19.980Z,1.50
2023-07-23T06:09:23.106Z,1.37
2023-07-23T06:12:26.129Z,1.40
2023-07-23T06:15:29.597Z,1.50
2023-07-23T06:18:32.653Z,1.30
2023-07-23T06:21:35.520Z,1.90
2023-07-23T06:24:38.587Z,1.77
2023-07-23T06:27:41.920Z,1.60
2023-07-23T06:30:44.891Z,1.50
2023-07-23T06:33:47.916Z,1.20
2023-07-23T06:36:50.830Z,1.38
2023-07-23T06:39:53.773Z,1.40
2023-07-23T06:42:56.605Z,1.80
2023-07-23T06:45:59.877Z,1.15
2023-07-23T06:49:02.884Z,1.50
2023-07-23T06:52:06.248Z,1.00
2023-07-23T06:55:09.619Z,1.40
2023-07-23T06:58:12.437Z,1.30
2023-07-23T07:01:15.366Z,1.35
2023-07-23T07:04:18.279Z,1.48
2023-07-23T07:07:21.282Z,1.40
2023-07-23T07:10:24.121Z,1.37
2023-07-23T07:13:28.176Z,1.50
2023-07-23T07:16:31.083Z,1.75
2023-07-23T07:19:34.351Z,1.25
2023-07-23T07:22:37.167Z,1.27
2023-07-23T07:25:43.914Z,1.20
2023-07-23T07:28:47.486Z,1.43
2023-07-23T07:31:50.533Z,1.30
2023-07-23T07:34:53.407Z,1.25
2023-07-23T07:37:56.386Z,1.30
2023-07-23T07:40:59.486Z,1.23
2023-07-23T07:44:02.484Z,1.20
2023-07-23T07:47:10.511Z,1.27
2023-07-23T07:50:14.078Z,1.30
2023-07-23T07:53:17.369Z,1.25
2023-07-23T07:56:20.436Z,1.20
2023-07-23T07:59:23.662Z,1.23
2023-07-23T08:02:26.835Z,1.20
2023-07-23T08:05:30.110Z,1.08
2023-07-23T08:08:35.817Z,1.40
2023-07-23T08:11:39.119Z,1.47
2023-07-23T08:14:42.644Z,1.40
2023-07-23T08:17:45.765Z,1.48
2023-07-23T08:20:49.050Z,1.17
2023-07-23T08:23:52.246Z,1.00
2023-07-23T08:26:59.015Z,1.20
2023-07-23T08:30:02.250Z,1.50
2023-07-23T08:33:06.095Z,1.48
2023-07-23T08:36:09.693Z,1.20
2023-07-23T08:39:13.443Z,1.27
2023-07-23T08:42:44.409Z,1.10
2023-07-23T08:46:25.610Z,1.30
2023-07-23T08:49:29.672Z,1.10
2023-07-23T08:52:33.167Z,1.10
2023-07-23T08:55:36.719Z,1.48
2023-07-23T08:58:39.831Z,1.20
2023-07-23T09:01:43.586Z,1.30
2023-07-23T09:04:46.787Z,1.10
2023-07-23T09:07:49.676Z,1.23
2023-07-23T09:10:52.832Z,1.20
2023-07-23T09:13:59.254Z,1.17
2023-07-23T09:17:02.174Z,1.60
2023-07-23T09:20:10.868Z,1.50
2023-07-23T09:23:13.992Z,1.40
2023-07-23T09:26:21.244Z,1.10
2023-07-23T09:29:24.313Z,1.27
2023-07-23T09:32:27.829Z,1.47
2023-07-23T09:35:31.742Z,1.20
2023-07-23T09:38:35.861Z,1.48
2023-07-23T09:41:40.356Z,1.50
2023-07-23T09:44:43.309Z,1.20
2023-07-23T09:47:46.416Z,1.20
2023-07-23T09:50:53.992Z,1.40
2023-07-23T09:54:01.190Z,1.20
2023-07-23T09:57:04.645Z,1.20
2023-07-23T10:00:08.276Z,1.20
2023-07-23T10:03:18.619Z,1.30
2023-07-23T10:06:25.496Z,1.13
2023-07-23T10:09:29.225Z,1.10
2023-07-23T10:12:32.070Z,1.10
2023-07-23T10:15:36.546Z,1.10
2023-07-23T10:18:42.910Z,1.47
2023-07-23T10:22:07.401Z,1.48
2023-07-23T10:25:37.031Z,1.20
2023-07-23T10:28:41.261Z,1.30
2023-07-23T10:31:44.264Z,1.47
2023-07-23T10:34:47.603Z,1.00
2023-07-23T10:38:23.098Z,1.45
2023-07-23T10:41:55.790Z,1.30
2023-07-23T10:45:18.934Z,1.60
2023-07-23T10:48:21.904Z,1.10
2023-07-23T10:51:25.756Z,1.20
2023-07-23T10:54:28.656Z,1.40
2023-07-23T10:57:32.498Z,1.23
2023-07-23T11:00:35.457Z,1.50
2023-07-23T11:03:44.708Z,1.17
2023-07-23T11:07:05.673Z,0.93
2023-07-23T11:10:44.757Z,1.20
2023-07-23T11:13:47.853Z,1.10
2023-07-23T11:16:53.334Z,1.30
2023-07-23T11:19:56.316Z,1.60
2023-07-23T11:22:59.683Z,1.20
2023-07-23T11:26:02.536Z,1.35
2023-07-23T11:29:05.533Z,1.27
2023-07-23T11:32:09.651Z,1.02
2023-07-23T11:35:12.589Z,1.20
2023-07-23T11:38:15.438Z,1.20
2023-07-23T11:41:29.174Z,1.10
2023-07-23T11:44:33.016Z,1.30
2023-07-23T11:47:53.306Z,1.52
2023-07-23T11:50:56.872Z,1.30
2023-07-23T11:54:09.304Z,1.20
2023-07-23T11:57:12.240Z,1.40
2023-07-23T12:00:15.592Z,1.20
2023-07-23T12:03:18.446Z,1.30
2023-07-23T12:06:21.517Z,1.17
2023-07-23T12:09:24.596Z,1.40
2023-07-23T12:12:27.447Z,1.15
2023-07-23T12:15:30.393Z,1.23
2023-07-23T12:18:48.110Z,1.48
2023-07-23T12:21:56.814Z,1.20
2023-07-23T12:24:59.854Z,1.20
2023-07-23T12:28:02.663Z,1.27
2023-07-23T12:31:05.622Z,1.20
2023-07-23T12:34:09.955Z,1.10
2023-07-23T12:37:14.212Z,1.40
2023-07-23T12:40:18.522Z,1.27
2023-07-23T12:43:21.339Z,1.30
2023-07-23T12:46:24.621Z,1.30
2023-07-23T12:49:27.771Z,1.38
2023-07-23T12:52:30.736Z,1.33
2023-07-23T12:55:33.714Z,1.13
2023-07-23T12:58:36.618Z,1.33
2023-07-23T13:01:39.761Z,1.52
2023-07-23T13:04:46.474Z,1.50
2023-07-23T13:07:49.763Z,1.10
2023-07-23T13:10:54.183Z,1.30
2023-07-23T13:13:57.547Z,1.50
2023-07-23T13:17:00.753Z,1.40
2023-07-23T13:20:04.525Z,1.40
2023-07-23T13:23:08.095Z,1.70
2023-07-23T13:26:12.307Z,1.57
2023-07-23T13:29:15.835Z,1.35
2023-07-23T13:32:19.077Z,1.60
2023-07-23T13:35:22.187Z,1.70
2023-07-23T13:38:25.390Z,1.20
2023-07-23T13:41:28.770Z,1.50
2023-07-23T13:44:32.928Z,1.30
2023-07-23T13:47:36.345Z,1.45
2023-07-23T13:53:45.670Z,1.30
2023-07-23T13:56:49.071Z,1.57
2023-07-23T13:59:52.684Z,1.10
2023-07-23T14:02:56.186Z,1.35
2023-07-23T14:05:59.510Z,1.40
2023-07-23T14:09:02.894Z,1.33
2023-07-23T14:12:06.790Z,1.30
2023-07-23T14:15:10.631Z,1.50
2023-07-23T14:18:13.894Z,1.50
2023-07-23T14:21:17.310Z,1.23
2023-07-23T14:24:21.922Z,1.40
2023-07-23T14:27:25.608Z,1.50
2023-07-23T14:30:29.112Z,1.63
2023-07-23T14:33:32.743Z,1.05
2023-07-23T14:36:35.901Z,1.35
2023-07-23T14:39:42.481Z,1.30
2023-07-23T14:42:46.147Z,0.97
2023-07-23T14:45:49.623Z,1.23
2023-07-23T14:48:56.051Z,1.30
2023-07-23T14:51:59.341Z,1.70
2023-07-23T14:55:04.282Z,1.43
2023-07-23T14:58:07.452Z,1.70
2023-07-23T15:01:10.389Z,1.65
2023-07-23T15:04:13.633Z,1.48
2023-07-23T15:07:16.722Z,1.50
2023-07-23T15:10:22.180Z,1.80
2023-07-23T15:13:26.596Z,1.50
2023-07-23T15:16:30.519Z,1.45
2023-07-23T15:19:33.876Z,1.35
2023-07-23T15:25:55.494Z,1.23
2023-07-23T15:28:59.954Z,1.50
2023-07-23T15:32:04.124Z,1.60
2023-07-23T15:35:08.665Z,1.50
2023-07-23T15:38:11.722Z,1.70
2023-07-23T15:41:15.081Z,1.50
2023-07-23T15:44:19.933Z,1.60
2023-07-23T15:47:23.321Z,1.92
2023-07-23T15:50:26.666Z,1.80
2023-07-23T15:53:29.879Z,1.80
2023-07-23T15:56:33.224Z,1.13
2023-07-23T15:59:36.454Z,1.27
2023-07-23T16:02:39.452Z,1.80
2023-07-23T16:05:44.099Z,1.55
2023-07-23T16:08:47.455Z,1.50
2023-07-23T16:11:50.607Z,1.40
2023-07-23T16:14:53.616Z,1.33
2023-07-23T16:17:58.210Z,1.55
2023-07-23T16:21:01.797Z,1.75
2023-07-23T16:24:05.721Z,1.63
2023-07-23T16:27:09.425Z,1.63
2023-07-23T16:30:12.739Z,1.70
2023-07-23T16:33:16.864Z,1.88
2023-07-23T16:36:22.820Z,1.50
2023-07-23T16:39:28.529Z,1.60
2023-07-23T16:42:32.181Z,1.70
2023-07-23T16:45:35.688Z,1.90
2023-07-23T16:48:39.434Z,1.98
2023-07-23T16:51:45.830Z,2.08
2023-07-23T16:54:49.631Z,2.10
2023-07-23T16:57:54.963Z,2.00
2023-07-23T17:00:58.609Z,1.67
2023-07-23T17:04:01.834Z,1.63
2023-07-23T17:07:05.678Z,1.50
2023-07-23T17:10:10.068Z,1.70
2023-07-23T17:13:17.729Z,1.70
2023-07-23T17:16:21.229Z,1.80
2023-07-23T17:19:24.873Z,1.70
2023-07-23T17:22:28.517Z,1.77
2023-07-23T17:25:31.663Z,2.00
2023-07-23T17:28:35.348Z,1.60
2023-07-23T17:31:39.055Z,2.07
2023-07-23T17:34:42.721Z,1.70
2023-07-23T17:37:45.716Z,1.77
2023-07-23T17:40:49.100Z,1.70
2023-07-23T17:43:52.552Z,1.93
2023-07-23T17:46:55.499Z,1.47
2023-07-23T17:50:00.839Z,1.80
2023-07-23T17:53:04.057Z,1.60
2023-07-23T17:56:07.576Z,2.08
2023-07-23T17:59:10.833Z,2.00
2023-07-23T18:02:13.836Z,1.57
2023-07-23T18:05:17.422Z,1.73
2023-07-23T18:08:21.002Z,2.00
2023-07-23T18:11:24.605Z,1.65
2023-07-23T18:14:29.723Z,1.97
2023-07-23T18:17:33.599Z,1.60
2023-07-23T18:20:37.416Z,2.13
2023-07-23T18:23:40.711Z,1.80
2023-07-23T18:26:46.091Z,2.13
2023-07-23T18:29:49.214Z,1.80
2023-07-23T18:32:52.949Z,1.97
2023-07-23T18:35:56.333Z,1.90
2023-07-23T18:38:59.692Z,1.67
2023-07-23T18:42:05.631Z,1.85
2023-07-23T18:45:11.578Z,1.77
2023-07-23T18:48:18.499Z,2.10
2023-07-23T18:51:22.165Z,1.80
2023-07-23T18:54:25.974Z,1.48
2023-07-23T18:57:29.189Z,1.73
2023-07-23T19:00:35.695Z,1.80
2023-07-23T19:03:41.286Z,1.90
2023-07-23T19:06:45.702Z,1.92
2023-07-23T19:09:50.712Z,1.60
2023-07-23T19:12:53.584Z,1.98
2023-07-23T19:15:57.015Z,1.60
2023-07-23T19:19:03.816Z,2.00
2023-07-23T19:22:08.535Z,1.60
2023-07-23T19:25:12.474Z,1.63
2023-07-23T19:28:15.677Z,1.85
2023-07-23T19:31:19.146Z,1.80
2023-07-23T19:34:22.928Z,2.10
2023-07-23T19:37:26.854Z,1.70
2023-07-23T19:40:30.496Z,1.90
2023-07-23T19:43:33.640Z,1.70
2023-07-23T19:46:37.687Z,1.57
2023-07-23T19:49:41.982Z,1.77
2023-07-23T19:52:47.986Z,1.70
2023-07-23T19:55:53.907Z,1.75
2023-07-23T19:58:57.416Z,1.63
2023-07-23T20:02:01.125Z,2.27
2023-07-23T20:05:05.585Z,1.57
2023-07-23T20:08:08.784Z,2.08
2023-07-23T20:11:13.251Z,1.75
2023-07-23T20:14:18.572Z,1.65
2023-07-23T20:17:22.216Z,1.80
2023-07-23T20:20:25.865Z,1.60
2023-07-23T20:23:29.316Z,1.60
2023-07-23T20:26:33.112Z,2.28
2023-07-23T20:29:37.469Z,2.00
2023-07-23T20:32:41.130Z,1.63
2023-07-23T20:35:44.895Z,2.20
2023-07-23T20:38:48.792Z,1.42
2023-07-23T20:41:52.164Z,1.85
2023-07-23T20:44:55.779Z,1.92
2023-07-23T20:47:59.286Z,1.60
2023-07-23T20:51:05.661Z,2.00
2023-07-23T20:54:09.080Z,1.95
2023-07-23T20:57:12.753Z,1.80
2023-07-23T21:00:15.863Z,1.80
2023-07-23T21:03:18.960Z,2.00
2023-07-23T21:06:21.989Z,1.90
2023-07-23T21:09:24.831Z,1.83
2023-07-23T21:12:27.816Z,1.73
2023-07-23T21:15:32.965Z,2.00
2023-07-23T21:18:36.424Z,1.77
2023-07-23T21:21:39.260Z,2.10
2023-07-23T21:24:42.241Z,2.20
2023-07-23T21:27:45.123Z,1.67
2023-07-23T21:30:48.042Z,1.60
2023-07-23T21:33:50.910Z,2.20
2023-07-23T21:36:53.750Z,1.90
2023-07-23T21:39:56.644Z,1.67
2023-07-23T21:42:59.515Z,1.63
2023-07-23T21:46:02.418Z,1.80
2023-07-23T21:49:05.495Z,1.43
2023-07-23T21:52:08.306Z,1.70
2023-07-23T21:55:11.256Z,1.65
2023-07-23T21:58:16.180Z,2.00
2023-07-23T22:01:19.100Z,1.75
2023-07-23T22:04:23.183Z,2.13
2023-07-23T22:07:26.166Z,1.80
2023-07-23T22:10:29.065Z,1.60
2023-07-23T22:13:32.062Z,1.60
2023-07-23T22:16:35.001Z,1.83
2023-07-23T22:19:37.915Z,1.50
2023-07-23T22:22:40.796Z,1.53
2023-07-23T22:25:44.040Z,1.75
2023-07-23T22:28:46.909Z,1.98
2023-07-23T22:31:50.023Z,1.88
2023-07-23T22:34:52.933Z,1.80
2023-07-23T22:37:55.914Z,1.70
2023-07-23T22:41:00.490Z,1.85
2023-07-23T22:44:04.555Z,1.75
2023-07-23T22:47:07.602Z,1.77
2023-07-23T22:50:10.811Z,2.07
2023-07-23T22:53:13.798Z,2.00
2023-07-23T22:56:17.356Z,1.75
2023-07-23T22:59:34.606Z,1.92
2023-07-23T23:02:46.565Z,2.00
2023-07-23T23:05:51.152Z,2.37
2023-07-23T23:08:54.292Z,1.77
2023-07-23T23:11:57.170Z,1.67
2023-07-23T23:14:59.995Z,2.28
2023-07-23T23:18:03.018Z,2.08
2023-07-23T23:21:05.944Z,2.00
2023-07-23T23:24:08.761Z,2.10
2023-07-23T23:27:11.690Z,1.85
2023-07-23T23:30:15.549Z,2.10
2023-07-23T23:33:18.678Z,1.63
2023-07-23T23:36:21.459Z,1.70
2023-07-23T23:39:24.360Z,1.53
2023-07-23T23:42:27.255Z,1.92
2023-07-23T23:45:30.180Z,2.00
2023-07-23T23:48:33.086Z,1.88
2023-07-23T23:51:35.986Z,2.13
2023-07-23T23:54:38.974Z,1.80
2023-07-23T23:57:41.896Z,2.00
